sensor_id;sensor_type;location;lat;lon;timestamp;temperature;humidity
7214;DHT22;3648;50.614;13.830;2023-02-28T00:00:10;-0.50;99.90
7214;DHT22;3648;50.614;13.830;2023-02-28T00:02:37;-0.50;99.90
7214;DHT22;3648;50.614;13.830;2023-02-28T00:05:06;-0.50;99.90
7214;DHT22;3648;50.614;13.830;2023-02-28T00:07:33;-0.50;99.90
7214;DHT22;3648;50.614;13.830;2023-02-28T00:10:01;-0.50;99.90
7214;DHT22;3648;50.614;13.830;2023-02-28T00:12:28;-0.50;99.90
7214;DHT22;3648;50.614;13.830;2023-02-28T00:14:56;-0.50;99.90
7214;DHT22;3648;50.614;13.830;2023-02-28T00:17:23;-0.50;99.90
7214;DHT22;3648;50.614;13.830;2023-02-28T00:19:51;-0.40;99.90
7214;DHT22;3648;50.614;13.830;2023-02-28T00:22:20;-0.40;99.90
7214;DHT22;3648;50.614;13.830;2023-02-28T00:24:47;-0.40;99.90
7214;DHT22;3648;50.614;13.830;2023-02-28T00:27:14;-0.40;99.90
7214;DHT22;3648;50.614;13.830;2023-02-28T00:29:41;-0.40;99.90
7214;DHT22;3648;50.614;13.830;2023-02-28T00:32:10;-0.40;99.90
7214;DHT22;3648;50.614;13.830;2023-02-28T00:34:36;-0.50;99.90
7214;DHT22;3648;50.614;13.830;2023-02-28T00:37:05;-0.50;99.90
7214;DHT22;3648;50.614;13.830;2023-02-28T00:39:34;-0.40;99.90
7214;DHT22;3648;50.614;13.830;2023-02-28T00:42:02;-0.40;99.90
7214;DHT22;3648;50.614;13.830;2023-02-28T00:44:29;-0.40;99.90
7214;DHT22;3648;50.614;13.830;2023-02-28T00:46:56;-0.40;99.90
7214;DHT22;3648;50.614;13.830;2023-02-28T00:49:26;-0.40;99.90
7214;DHT22;3648;50.614;13.830;2023-02-28T00:51:53;-0.40;99.90
7214;DHT22;3648;50.614;13.830;2023-02-28T00:54:21;-0.40;99.90
7214;DHT22;3648;50.614;13.830;2023-02-28T00:56:48;-0.40;99.90
7214;DHT22;3648;50.614;13.830;2023-02-28T00:59:17;-0.40;99.90
7214;DHT22;3648;50.614;13.830;2023-02-28T01:01:45;-0.40;99.90
7214;DHT22;3648;50.614;13.830;2023-02-28T01:04:13;-0.40;99.90
7214;DHT22;3648;50.614;13.830;2023-02-28T01:06:41;-0.40;99.90
7214;DHT22;3648;50.614;13.830;2023-02-28T01:09:09;-0.40;99.90
7214;DHT22;3648;50.614;13.830;2023-02-28T01:11:36;-0.50;99.90
7214;DHT22;3648;50.614;13.830;2023-02-28T01:14:03;-0.50;99.90
7214;DHT22;3648;50.614;13.830;2023-02-28T01:16:30;-0.50;99.90
7214;DHT22;3648;50.614;13.830;2023-02-28T01:18:57;-0.50;99.90
7214;DHT22;3648;50.614;13.830;2023-02-28T01:21:25;-0.50;99.90
7214;DHT22;3648;50.614;13.830;2023-02-28T01:23:56;-0.50;99.90
7214;DHT22;3648;50.614;13.830;2023-02-28T01:26:23;-0.50;99.90
7214;DHT22;3648;50.614;13.830;2023-02-28T01:28:52;-0.50;99.90
7214;DHT22;3648;50.614;13.830;2023-02-28T01:31:20;-0.50;99.90
7214;DHT22;3648;50.614;13.830;2023-02-28T01:33:47;-0.50;99.90
7214;DHT22;3648;50.614;13.830;2023-02-28T01:36:16;-0.50;99.90
7214;DHT22;3648;50.614;13.830;2023-02-28T01:38:44;-0.50;99.90
7214;DHT22;3648;50.614;13.830;2023-02-28T01:41:16;-0.60;99.90
7214;DHT22;3648;50.614;13.830;2023-02-28T01:43:58;-0.50;99.90
7214;DHT22;3648;50.614;13.830;2023-02-28T01:46:28;-0.60;99.90
7214;DHT22;3648;50.614;13.830;2023-02-28T01:49:00;-0.60;99.90
7214;DHT22;3648;50.614;13.830;2023-02-28T01:51:32;-0.60;99.90
7214;DHT22;3648;50.614;13.830;2023-02-28T01:54:04;-0.70;99.90
7214;DHT22;3648;50.614;13.830;2023-02-28T01:56:36;-0.70;99.90
7214;DHT22;3648;50.614;13.830;2023-02-28T01:59:03;-0.70;99.90
7214;DHT22;3648;50.614;13.830;2023-02-28T02:01:30;-0.70;99.90
7214;DHT22;3648;50.614;13.830;2023-02-28T02:04:01;-0.80;99.90
7214;DHT22;3648;50.614;13.830;2023-02-28T02:06:30;-0.80;99.90
7214;DHT22;3648;50.614;13.830;2023-02-28T02:09:00;-0.80;99.90
7214;DHT22;3648;50.614;13.830;2023-02-28T02:11:29;-0.80;99.90
7214;DHT22;3648;50.614;13.830;2023-02-28T02:14:17;-0.80;99.90
7214;DHT22;3648;50.614;13.830;2023-02-28T02:17:02;-0.90;99.90
7214;DHT22;3648;50.614;13.830;2023-02-28T02:19:55;-0.90;99.90
7214;DHT22;3648;50.614;13.830;2023-02-28T02:22:47;-0.90;99.90
7214;DHT22;3648;50.614;13.830;2023-02-28T02:25:26;-0.90;99.90
7214;DHT22;3648;50.614;13.830;2023-02-28T02:28:11;-1.00;99.90
7214;DHT22;3648;50.614;13.830;2023-02-28T02:30:55;-1.00;99.90
7214;DHT22;3648;50.614;13.830;2023-02-28T02:36:32;-1.10;99.90
7214;DHT22;3648;50.614;13.830;2023-02-28T02:39:04;-1.10;99.90
7214;DHT22;3648;50.614;13.830;2023-02-28T02:41:36;-1.10;99.90
7214;DHT22;3648;50.614;13.830;2023-02-28T02:44:10;-1.20;99.90
7214;DHT22;3648;50.614;13.830;2023-02-28T02:46:42;-1.20;99.90
7214;DHT22;3648;50.614;13.830;2023-02-28T02:49:15;-1.30;99.90
7214;DHT22;3648;50.614;13.830;2023-02-28T02:51:46;-1.20;99.90
7214;DHT22;3648;50.614;13.830;2023-02-28T02:54:17;-1.30;99.90
7214;DHT22;3648;50.614;13.830;2023-02-28T02:56:48;-1.40;99.90
7214;DHT22;3648;50.614;13.830;2023-02-28T02:59:17;-1.40;99.90
7214;DHT22;3648;50.614;13.830;2023-02-28T03:01:49;-1.40;99.90
7214;DHT22;3648;50.614;13.830;2023-02-28T03:04:19;-1.50;99.90
7214;DHT22;3648;50.614;13.830;2023-02-28T03:06:50;-1.50;99.90
7214;DHT22;3648;50.614;13.830;2023-02-28T03:09:20;-1.50;99.90
7214;DHT22;3648;50.614;13.830;2023-02-28T03:11:47;-1.60;99.90
7214;DHT22;3648;50.614;13.830;2023-02-28T03:14:32;-1.60;99.90
7214;DHT22;3648;50.614;13.830;2023-02-28T03:17:19;-1.60;99.90
7214;DHT22;3648;50.614;13.830;2023-02-28T03:19:55;-1.70;99.90
7214;DHT22;3648;50.614;13.830;2023-02-28T03:22:52;-1.70;99.90
7214;DHT22;3648;50.614;13.830;2023-02-28T03:25:31;-1.80;99.90
7214;DHT22;3648;50.614;13.830;2023-02-28T03:28:05;-1.90;99.90
7214;DHT22;3648;50.614;13.830;2023-02-28T03:30:39;-1.90;99.90
7214;DHT22;3648;50.614;13.830;2023-02-28T03:33:11;-1.90;99.90
7214;DHT22;3648;50.614;13.830;2023-02-28T03:35:45;-1.90;99.90
7214;DHT22;3648;50.614;13.830;2023-02-28T03:38:21;-1.90;99.90
7214;DHT22;3648;50.614;13.830;2023-02-28T03:40:51;-1.90;99.90
7214;DHT22;3648;50.614;13.830;2023-02-28T03:43:23;-2.00;99.90
7214;DHT22;3648;50.614;13.830;2023-02-28T03:45:55;-2.00;99.90
7214;DHT22;3648;50.614;13.830;2023-02-28T03:48:26;-2.00;99.90
7214;DHT22;3648;50.614;13.830;2023-02-28T03:50:57;-2.10;99.90
7214;DHT22;3648;50.614;13.830;2023-02-28T03:53:29;-2.10;99.90
7214;DHT22;3648;50.614;13.830;2023-02-28T03:56:00;-2.10;99.90
7214;DHT22;3648;50.614;13.830;2023-02-28T03:58:31;-2.10;99.90
7214;DHT22;3648;50.614;13.830;2023-02-28T04:01:03;-2.20;99.90
7214;DHT22;3648;50.614;13.830;2023-02-28T04:03:34;-2.20;99.90
7214;DHT22;3648;50.614;13.830;2023-02-28T04:06:02;-2.20;99.90
7214;DHT22;3648;50.614;13.830;2023-02-28T04:08:31;-2.20;99.90
7214;DHT22;3648;50.614;13.830;2023-02-28T04:11:02;-2.20;99.90
7214;DHT22;3648;50.614;13.830;2023-02-28T04:13:31;-2.30;99.90
7214;DHT22;3648;50.614;13.830;2023-02-28T04:15:58;-2.30;99.90
7214;DHT22;3648;50.614;13.830;2023-02-28T04:18:25;-2.30;99.90
7214;DHT22;3648;50.614;13.830;2023-02-28T04:20:52;-2.30;99.90
7214;DHT22;3648;50.614;13.830;2023-02-28T04:23:19;-2.30;99.90
7214;DHT22;3648;50.614;13.830;2023-02-28T04:25:47;-2.30;99.90
7214;DHT22;3648;50.614;13.830;2023-02-28T04:28:16;-2.30;99.90
7214;DHT22;3648;50.614;13.830;2023-02-28T04:30:43;-2.30;99.90
7214;DHT22;3648;50.614;13.830;2023-02-28T04:33:10;-2.30;99.90
7214;DHT22;3648;50.614;13.830;2023-02-28T04:35:37;-2.30;99.90
7214;DHT22;3648;50.614;13.830;2023-02-28T04:38:04;-2.40;99.90
7214;DHT22;3648;50.614;13.830;2023-02-28T04:40:31;-2.40;99.90
7214;DHT22;3648;50.614;13.830;2023-02-28T04:43:00;-2.50;99.90
7214;DHT22;3648;50.614;13.830;2023-02-28T04:45:26;-2.40;99.90
7214;DHT22;3648;50.614;13.830;2023-02-28T04:47:55;-2.40;99.90
7214;DHT22;3648;50.614;13.830;2023-02-28T04:50:22;-2.50;99.90
7214;DHT22;3648;50.614;13.830;2023-02-28T04:52:49;-2.50;99.90
7214;DHT22;3648;50.614;13.830;2023-02-28T04:55:16;-2.60;99.90
7214;DHT22;3648;50.614;13.830;2023-02-28T04:57:43;-2.60;99.90
7214;DHT22;3648;50.614;13.830;2023-02-28T05:00:13;-2.60;99.90
7214;DHT22;3648;50.614;13.830;2023-02-28T05:02:42;-2.60;99.90
7214;DHT22;3648;50.614;13.830;2023-02-28T05:05:09;-2.60;99.90
7214;DHT22;3648;50.614;13.830;2023-02-28T05:07:37;-2.60;99.90
7214;DHT22;3648;50.614;13.830;2023-02-28T05:10:05;-2.60;99.90
7214;DHT22;3648;50.614;13.830;2023-02-28T05:12:32;-2.60;99.90
7214;DHT22;3648;50.614;13.830;2023-02-28T05:14:59;-2.60;99.90
7214;DHT22;3648;50.614;13.830;2023-02-28T05:17:28;-2.60;99.90
7214;DHT22;3648;50.614;13.830;2023-02-28T05:19:55;-2.60;99.90
7214;DHT22;3648;50.614;13.830;2023-02-28T05:22:22;-2.60;99.90
7214;DHT22;3648;50.614;13.830;2023-02-28T05:24:49;-2.70;99.90
7214;DHT22;3648;50.614;13.830;2023-02-28T05:27:16;-2.70;99.90
7214;DHT22;3648;50.614;13.830;2023-02-28T05:29:43;-2.70;99.90
7214;DHT22;3648;50.614;13.830;2023-02-28T05:32:11;-2.70;99.90
7214;DHT22;3648;50.614;13.830;2023-02-28T05:34:40;-2.70;99.90
7214;DHT22;3648;50.614;13.830;2023-02-28T05:37:11;-2.70;99.90
7214;DHT22;3648;50.614;13.830;2023-02-28T05:39:39;-2.70;99.90
7214;DHT22;3648;50.614;13.830;2023-02-28T05:42:06;-2.80;99.90
7214;DHT22;3648;50.614;13.830;2023-02-28T05:44:33;-2.80;99.90
7214;DHT22;3648;50.614;13.830;2023-02-28T05:47:00;-2.80;99.90
7214;DHT22;3648;50.614;13.830;2023-02-28T05:49:28;-2.80;99.90
7214;DHT22;3648;50.614;13.830;2023-02-28T05:51:56;-2.80;99.90
7214;DHT22;3648;50.614;13.830;2023-02-28T05:54:23;-2.80;99.90
7214;DHT22;3648;50.614;13.830;2023-02-28T05:56:50;-2.80;99.90
7214;DHT22;3648;50.614;13.830;2023-02-28T05:59:17;-2.80;99.90
7214;DHT22;3648;50.614;13.830;2023-02-28T06:01:45;-2.80;99.90
7214;DHT22;3648;50.614;13.830;2023-02-28T06:04:14;-2.80;99.90
7214;DHT22;3648;50.614;13.830;2023-02-28T06:06:44;-2.80;99.90
7214;DHT22;3648;50.614;13.830;2023-02-28T06:09:13;-2.80;99.90
7214;DHT22;3648;50.614;13.830;2023-02-28T06:11:41;-2.80;99.90
7214;DHT22;3648;50.614;13.830;2023-02-28T06:14:14;-2.80;99.90
7214;DHT22;3648;50.614;13.830;2023-02-28T06:16:41;-2.80;99.90
7214;DHT22;3648;50.614;13.830;2023-02-28T06:19:09;-2.80;99.90
7214;DHT22;3648;50.614;13.830;2023-02-28T06:21:36;-2.80;99.90
7214;DHT22;3648;50.614;13.830;2023-02-28T06:24:04;-2.80;99.90
7214;DHT22;3648;50.614;13.830;2023-02-28T06:26:32;-2.70;99.90
7214;DHT22;3648;50.614;13.830;2023-02-28T06:28:59;-2.70;99.90
7214;DHT22;3648;50.614;13.830;2023-02-28T06:31:27;-2.60;99.90
7214;DHT22;3648;50.614;13.830;2023-02-28T06:33:55;-2.60;99.90
7214;DHT22;3648;50.614;13.830;2023-02-28T06:36:22;-2.50;99.90
7214;DHT22;3648;50.614;13.830;2023-02-28T06:38:49;-2.40;99.90
7214;DHT22;3648;50.614;13.830;2023-02-28T06:41:20;-2.30;99.90
7214;DHT22;3648;50.614;13.830;2023-02-28T06:43:49;-2.20;99.90
7214;DHT22;3648;50.614;13.830;2023-02-28T06:46:16;-2.00;99.90
7214;DHT22;3648;50.614;13.830;2023-02-28T06:48:43;-1.90;99.90
7214;DHT22;3648;50.614;13.830;2023-02-28T06:51:12;-1.70;99.90
7214;DHT22;3648;50.614;13.830;2023-02-28T06:53:40;-1.50;99.90
7214;DHT22;3648;50.614;13.830;2023-02-28T06:56:09;-1.30;99.90
7214;DHT22;3648;50.614;13.830;2023-02-28T06:58:36;-1.00;99.90
7214;DHT22;3648;50.614;13.830;2023-02-28T07:01:06;-0.70;99.90
7214;DHT22;3648;50.614;13.830;2023-02-28T07:03:34;-0.50;99.90
7214;DHT22;3648;50.614;13.830;2023-02-28T07:06:02;-0.20;99.90
7214;DHT22;3648;50.614;13.830;2023-02-28T07:08:29;0.00;99.90
7214;DHT22;3648;50.614;13.830;2023-02-28T07:10:57;0.10;99.90
7214;DHT22;3648;50.614;13.830;2023-02-28T07:13:24;0.30;99.90
7214;DHT22;3648;50.614;13.830;2023-02-28T07:15:55;0.50;99.90
7214;DHT22;3648;50.614;13.830;2023-02-28T07:18:23;0.70;99.90
7214;DHT22;3648;50.614;13.830;2023-02-28T07:20:50;0.80;99.90
7214;DHT22;3648;50.614;13.830;2023-02-28T07:23:18;0.90;99.90
7214;DHT22;3648;50.614;13.830;2023-02-28T07:25:45;1.10;99.90
7214;DHT22;3648;50.614;13.830;2023-02-28T07:28:12;1.20;99.90
7214;DHT22;3648;50.614;13.830;2023-02-28T07:30:39;1.30;99.90
7214;DHT22;3648;50.614;13.830;2023-02-28T07:33:06;1.40;99.90
7214;DHT22;3648;50.614;13.830;2023-02-28T07:35:35;1.60;99.90
7214;DHT22;3648;50.614;13.830;2023-02-28T07:38:02;1.70;99.90
7214;DHT22;3648;50.614;13.830;2023-02-28T07:40:31;1.90;99.90
7214;DHT22;3648;50.614;13.830;2023-02-28T07:42:59;2.00;99.90
7214;DHT22;3648;50.614;13.830;2023-02-28T07:45:26;2.20;99.90
7214;DHT22;3648;50.614;13.830;2023-02-28T07:47:54;2.40;99.90
7214;DHT22;3648;50.614;13.830;2023-02-28T07:50:22;2.50;99.90
7214;DHT22;3648;50.614;13.830;2023-02-28T07:52:50;2.80;99.90
7214;DHT22;3648;50.614;13.830;2023-02-28T07:55:17;2.90;99.90
7214;DHT22;3648;50.614;13.830;2023-02-28T07:57:44;3.10;99.90
7214;DHT22;3648;50.614;13.830;2023-02-28T08:00:12;3.30;99.90
7214;DHT22;3648;50.614;13.830;2023-02-28T08:02:39;3.30;99.90
7214;DHT22;3648;50.614;13.830;2023-02-28T08:05:07;3.30;99.90
7214;DHT22;3648;50.614;13.830;2023-02-28T08:07:34;3.40;99.90
7214;DHT22;3648;50.614;13.830;2023-02-28T08:10:02;3.50;99.90
7214;DHT22;3648;50.614;13.830;2023-02-28T08:12:31;3.50;99.90
7214;DHT22;3648;50.614;13.830;2023-02-28T08:14:58;3.50;99.90
7214;DHT22;3648;50.614;13.830;2023-02-28T08:17:25;3.50;99.90
7214;DHT22;3648;50.614;13.830;2023-02-28T08:19:52;3.70;99.90
7214;DHT22;3648;50.614;13.830;2023-02-28T08:22:19;3.90;99.90
7214;DHT22;3648;50.614;13.830;2023-02-28T08:24:46;3.90;99.90
7214;DHT22;3648;50.614;13.830;2023-02-28T08:27:14;4.00;99.90
7214;DHT22;3648;50.614;13.830;2023-02-28T08:29:41;4.20;99.90
7214;DHT22;3648;50.614;13.830;2023-02-28T08:32:08;4.60;99.90
7214;DHT22;3648;50.614;13.830;2023-02-28T08:34:35;4.40;99.90
7214;DHT22;3648;50.614;13.830;2023-02-28T08:37:02;4.60;99.90
7214;DHT22;3648;50.614;13.830;2023-02-28T08:39:29;4.90;99.90
7214;DHT22;3648;50.614;13.830;2023-02-28T08:41:57;4.90;99.90
7214;DHT22;3648;50.614;13.830;2023-02-28T08:44:25;4.90;99.90
7214;DHT22;3648;50.614;13.830;2023-02-28T08:46:52;5.10;99.90
7214;DHT22;3648;50.614;13.830;2023-02-28T08:49:19;5.30;99.90
7214;DHT22;3648;50.614;13.830;2023-02-28T08:51:46;5.10;99.90
7214;DHT22;3648;50.614;13.830;2023-02-28T08:54:13;5.00;99.90
7214;DHT22;3648;50.614;13.830;2023-02-28T08:56:45;4.90;99.90
7214;DHT22;3648;50.614;13.830;2023-02-28T08:59:12;5.00;99.90
7214;DHT22;3648;50.614;13.830;2023-02-28T09:01:40;5.00;99.90
7214;DHT22;3648;50.614;13.830;2023-02-28T09:04:09;5.10;99.90
7214;DHT22;3648;50.614;13.830;2023-02-28T09:06:37;5.20;99.90
7214;DHT22;3648;50.614;13.830;2023-02-28T09:09:04;5.20;99.90
7214;DHT22;3648;50.614;13.830;2023-02-28T09:11:33;5.00;99.90
7214;DHT22;3648;50.614;13.830;2023-02-28T09:14:00;5.30;99.90
7214;DHT22;3648;50.614;13.830;2023-02-28T09:16:29;5.40;99.90
7214;DHT22;3648;50.614;13.830;2023-02-28T09:18:57;5.40;99.90
7214;DHT22;3648;50.614;13.830;2023-02-28T09:21:26;5.70;99.90
7214;DHT22;3648;50.614;13.830;2023-02-28T09:23:53;5.80;99.90
7214;DHT22;3648;50.614;13.830;2023-02-28T09:26:21;5.70;99.90
7214;DHT22;3648;50.614;13.830;2023-02-28T09:28:49;5.70;99.90
7214;DHT22;3648;50.614;13.830;2023-02-28T09:31:19;5.80;99.90
7214;DHT22;3648;50.614;13.830;2023-02-28T09:33:47;6.00;99.90
7214;DHT22;3648;50.614;13.830;2023-02-28T09:36:16;6.00;99.90
7214;DHT22;3648;50.614;13.830;2023-02-28T09:38:43;5.90;99.90
7214;DHT22;3648;50.614;13.830;2023-02-28T09:41:13;6.00;99.90
7214;DHT22;3648;50.614;13.830;2023-02-28T09:43:44;6.00;99.90
7214;DHT22;3648;50.614;13.830;2023-02-28T09:46:22;6.00;99.90
7214;DHT22;3648;50.614;13.830;2023-02-28T09:48:52;6.00;99.90
7214;DHT22;3648;50.614;13.830;2023-02-28T09:51:36;5.90;99.90
7214;DHT22;3648;50.614;13.830;2023-02-28T09:54:05;5.70;99.90
7214;DHT22;3648;50.614;13.830;2023-02-28T09:56:36;5.50;99.90
7214;DHT22;3648;50.614;13.830;2023-02-28T09:59:09;5.30;99.90
7214;DHT22;3648;50.614;13.830;2023-02-28T10:01:40;5.10;99.90
7214;DHT22;3648;50.614;13.830;2023-02-28T10:04:16;5.00;99.90
7214;DHT22;3648;50.614;13.830;2023-02-28T10:06:50;5.00;99.90
7214;DHT22;3648;50.614;13.830;2023-02-28T10:09:19;5.00;99.90
7214;DHT22;3648;50.614;13.830;2023-02-28T10:11:50;4.90;99.90
7214;DHT22;3648;50.614;13.830;2023-02-28T10:14:20;5.00;99.90
7214;DHT22;3648;50.614;13.830;2023-02-28T10:16:50;5.00;99.90
7214;DHT22;3648;50.614;13.830;2023-02-28T10:19:23;4.90;99.90
7214;DHT22;3648;50.614;13.830;2023-02-28T10:21:57;4.80;99.90
7214;DHT22;3648;50.614;13.830;2023-02-28T10:24:30;4.80;99.90
7214;DHT22;3648;50.614;13.830;2023-02-28T10:27:01;4.80;99.90
7214;DHT22;3648;50.614;13.830;2023-02-28T10:29:31;5.00;99.90
7214;DHT22;3648;50.614;13.830;2023-02-28T10:32:01;5.10;99.90
7214;DHT22;3648;50.614;13.830;2023-02-28T10:34:29;4.90;99.90
7214;DHT22;3648;50.614;13.830;2023-02-28T10:36:59;5.10;99.90
7214;DHT22;3648;50.614;13.830;2023-02-28T10:39:41;5.30;99.90
7214;DHT22;3648;50.614;13.830;2023-02-28T10:42:23;5.40;99.90
7214;DHT22;3648;50.614;13.830;2023-02-28T10:45:06;5.60;99.90
7214;DHT22;3648;50.614;13.830;2023-02-28T10:47:35;5.80;99.90
7214;DHT22;3648;50.614;13.830;2023-02-28T10:50:05;5.80;99.90
7214;DHT22;3648;50.614;13.830;2023-02-28T10:52:36;6.00;99.90
7214;DHT22;3648;50.614;13.830;2023-02-28T10:55:18;6.00;99.90
7214;DHT22;3648;50.614;13.830;2023-02-28T10:57:46;6.10;99.90
7214;DHT22;3648;50.614;13.830;2023-02-28T11:00:16;6.10;99.90
7214;DHT22;3648;50.614;13.830;2023-02-28T11:02:44;6.10;99.90
7214;DHT22;3648;50.614;13.830;2023-02-28T11:05:26;6.00;99.90
7214;DHT22;3648;50.614;13.830;2023-02-28T11:07:56;5.80;99.90
7214;DHT22;3648;50.614;13.830;2023-02-28T11:10:28;5.70;99.90
7214;DHT22;3648;50.614;13.830;2023-02-28T11:12:58;5.80;99.90
7214;DHT22;3648;50.614;13.830;2023-02-28T11:15:26;5.70;99.90
7214;DHT22;3648;50.614;13.830;2023-02-28T11:17:55;5.50;99.90
7214;DHT22;3648;50.614;13.830;2023-02-28T11:20:25;5.40;99.90
7214;DHT22;3648;50.614;13.830;2023-02-28T11:22:55;5.20;99.90
7214;DHT22;3648;50.614;13.830;2023-02-28T11:25:26;5.10;99.90
7214;DHT22;3648;50.614;13.830;2023-02-28T11:27:54;5.00;99.90
7214;DHT22;3648;50.614;13.830;2023-02-28T11:30:31;5.00;99.90
7214;DHT22;3648;50.614;13.830;2023-02-28T11:32:59;5.00;99.90
7214;DHT22;3648;50.614;13.830;2023-02-28T11:35:29;5.00;99.90
7214;DHT22;3648;50.614;13.830;2023-02-28T11:37:58;5.10;99.90
7214;DHT22;3648;50.614;13.830;2023-02-28T11:40:31;5.10;99.90
7214;DHT22;3648;50.614;13.830;2023-02-28T11:43:09;5.10;99.90
7214;DHT22;3648;50.614;13.830;2023-02-28T11:45:49;5.10;99.90
7214;DHT22;3648;50.614;13.830;2023-02-28T11:48:23;5.10;99.90
7214;DHT22;3648;50.614;13.830;2023-02-28T11:51:08;5.10;99.90
7214;DHT22;3648;50.614;13.830;2023-02-28T11:54:11;5.10;99.90
7214;DHT22;3648;50.614;13.830;2023-02-28T11:56:45;5.10;99.90
7214;DHT22;3648;50.614;13.830;2023-02-28T11:59:45;5.20;99.90
7214;DHT22;3648;50.614;13.830;2023-02-28T12:02:23;5.20;99.90
7214;DHT22;3648;50.614;13.830;2023-02-28T12:05:01;5.30;99.90
7214;DHT22;3648;50.614;13.830;2023-02-28T12:07:37;5.30;99.90
7214;DHT22;3648;50.614;13.830;2023-02-28T12:10:20;5.40;99.90
7214;DHT22;3648;50.614;13.830;2023-02-28T12:12:54;5.40;99.90
7214;DHT22;3648;50.614;13.830;2023-02-28T12:15:43;5.40;99.90
7214;DHT22;3648;50.614;13.830;2023-02-28T12:18:43;5.50;99.90
7214;DHT22;3648;50.614;13.830;2023-02-28T12:21:18;5.50;99.90
7214;DHT22;3648;50.614;13.830;2023-02-28T12:24:14;5.40;99.90
7214;DHT22;3648;50.614;13.830;2023-02-28T12:26:49;5.40;99.90
7214;DHT22;3648;50.614;13.830;2023-02-28T12:29:19;5.40;99.90
7214;DHT22;3648;50.614;13.830;2023-02-28T12:31:51;5.40;99.90
7214;DHT22;3648;50.614;13.830;2023-02-28T12:34:22;5.50;99.90
7214;DHT22;3648;50.614;13.830;2023-02-28T12:36:54;5.40;99.90
7214;DHT22;3648;50.614;13.830;2023-02-28T12:39:26;5.30;99.90
7214;DHT22;3648;50.614;13.830;2023-02-28T12:41:58;5.30;99.90
7214;DHT22;3648;50.614;13.830;2023-02-28T12:44:30;5.20;99.90
7214;DHT22;3648;50.614;13.830;2023-02-28T12:47:00;5.20;99.90
7214;DHT22;3648;50.614;13.830;2023-02-28T12:49:32;5.20;99.90
7214;DHT22;3648;50.614;13.830;2023-02-28T12:52:01;5.10;99.90
7214;DHT22;3648;50.614;13.830;2023-02-28T12:54:35;5.10;99.90
7214;DHT22;3648;50.614;13.830;2023-02-28T12:57:11;5.20;99.90
7214;DHT22;3648;50.614;13.830;2023-02-28T12:59:42;5.30;99.90
7214;DHT22;3648;50.614;13.830;2023-02-28T13:03:02;5.30;99.90
7214;DHT22;3648;50.614;13.830;2023-02-28T13:05:54;5.30;99.90
7214;DHT22;3648;50.614;13.830;2023-02-28T13:08:43;5.30;99.90
7214;DHT22;3648;50.614;13.830;2023-02-28T13:11:25;5.20;99.90
7214;DHT22;3648;50.614;13.830;2023-02-28T13:13:59;5.20;99.90
7214;DHT22;3648;50.614;13.830;2023-02-28T13:16:26;5.30;99.90
7214;DHT22;3648;50.614;13.830;2023-02-28T13:19:09;5.20;99.90
7214;DHT22;3648;50.614;13.830;2023-02-28T13:21:43;5.30;99.90
7214;DHT22;3648;50.614;13.830;2023-02-28T13:24:11;5.30;99.90
7214;DHT22;3648;50.614;13.830;2023-02-28T13:29:59;5.20;99.90
7214;DHT22;3648;50.614;13.830;2023-02-28T13:32:35;5.30;99.90
7214;DHT22;3648;50.614;13.830;2023-02-28T13:35:43;5.20;99.90
7214;DHT22;3648;50.614;13.830;2023-02-28T13:38:32;5.30;99.90
7214;DHT22;3648;50.614;13.830;2023-02-28T13:44:15;5.40;99.90
7214;DHT22;3648;50.614;13.830;2023-02-28T13:47:20;5.30;99.90
7214;DHT22;3648;50.614;13.830;2023-02-28T13:49:48;5.30;99.90
7214;DHT22;3648;50.614;13.830;2023-02-28T13:52:19;5.20;99.90
7214;DHT22;3648;50.614;13.830;2023-02-28T13:55:11;5.20;99.90
7214;DHT22;3648;50.614;13.830;2023-02-28T13:57:52;5.20;99.90
7214;DHT22;3648;50.614;13.830;2023-02-28T14:00:31;5.20;99.90
7214;DHT22;3648;50.614;13.830;2023-02-28T14:06:18;5.40;99.90
7214;DHT22;3648;50.614;13.830;2023-02-28T14:08:55;5.30;99.90
7214;DHT22;3648;50.614;13.830;2023-02-28T14:11:28;5.30;99.90
7214;DHT22;3648;50.614;13.830;2023-02-28T14:13:56;5.30;99.90
7214;DHT22;3648;50.614;13.830;2023-02-28T14:16:25;5.30;99.90
7214;DHT22;3648;50.614;13.830;2023-02-28T14:18:57;5.30;99.90
7214;DHT22;3648;50.614;13.830;2023-02-28T14:21:28;5.30;99.90
7214;DHT22;3648;50.614;13.830;2023-02-28T14:24:30;5.20;99.90
7214;DHT22;3648;50.614;13.830;2023-02-28T14:27:11;5.20;99.90
7214;DHT22;3648;50.614;13.830;2023-02-28T14:32:54;5.30;99.90
7214;DHT22;3648;50.614;13.830;2023-02-28T14:35:43;5.20;99.90
7214;DHT22;3648;50.614;13.830;2023-02-28T14:38:18;5.30;99.90
7214;DHT22;3648;50.614;13.830;2023-02-28T14:40:47;5.30;99.90
7214;DHT22;3648;50.614;13.830;2023-02-28T14:43:21;5.30;99.90
7214;DHT22;3648;50.614;13.830;2023-02-28T14:45:54;5.30;99.90
7214;DHT22;3648;50.614;13.830;2023-02-28T14:48:22;5.20;99.90
7214;DHT22;3648;50.614;13.830;2023-02-28T14:50:54;5.20;99.90
7214;DHT22;3648;50.614;13.830;2023-02-28T14:53:24;5.10;99.90
7214;DHT22;3648;50.614;13.830;2023-02-28T14:55:52;5.00;99.90
7214;DHT22;3648;50.614;13.830;2023-02-28T14:58:25;5.00;99.90
7214;DHT22;3648;50.614;13.830;2023-02-28T15:00:54;4.80;99.90
7214;DHT22;3648;50.614;13.830;2023-02-28T15:03:23;4.80;99.90
7214;DHT22;3648;50.614;13.830;2023-02-28T15:05:53;4.70;99.90
7214;DHT22;3648;50.614;13.830;2023-02-28T15:08:23;4.80;99.90
7214;DHT22;3648;50.614;13.830;2023-02-28T15:10:53;4.70;99.90
7214;DHT22;3648;50.614;13.830;2023-02-28T15:13:21;4.70;99.90
7214;DHT22;3648;50.614;13.830;2023-02-28T15:15:51;4.60;99.90
7214;DHT22;3648;50.614;13.830;2023-02-28T15:18:27;4.60;99.90
7214;DHT22;3648;50.614;13.830;2023-02-28T15:20:57;4.50;99.90
7214;DHT22;3648;50.614;13.830;2023-02-28T15:23:27;4.40;99.90
7214;DHT22;3648;50.614;13.830;2023-02-28T15:25:55;4.40;99.90
7214;DHT22;3648;50.614;13.830;2023-02-28T15:28:23;4.30;99.90
7214;DHT22;3648;50.614;13.830;2023-02-28T15:30:57;4.20;99.90
7214;DHT22;3648;50.614;13.830;2023-02-28T15:33:25;4.20;99.90
7214;DHT22;3648;50.614;13.830;2023-02-28T15:36:09;4.10;99.90
7214;DHT22;3648;50.614;13.830;2023-02-28T15:38:39;4.00;99.90
7214;DHT22;3648;50.614;13.830;2023-02-28T15:41:21;3.90;99.90
7214;DHT22;3648;50.614;13.830;2023-02-28T15:43:48;3.90;99.90
7214;DHT22;3648;50.614;13.830;2023-02-28T15:46:15;3.80;99.90
7214;DHT22;3648;50.614;13.830;2023-02-28T15:48:44;3.70;99.90
7214;DHT22;3648;50.614;13.830;2023-02-28T15:51:17;3.60;99.90
7214;DHT22;3648;50.614;13.830;2023-02-28T15:53:48;3.50;99.90
7214;DHT22;3648;50.614;13.830;2023-02-28T15:56:22;3.50;99.90
7214;DHT22;3648;50.614;13.830;2023-02-28T15:58:50;3.40;99.90
7214;DHT22;3648;50.614;13.830;2023-02-28T16:01:24;3.30;99.90
7214;DHT22;3648;50.614;13.830;2023-02-28T16:03:53;3.30;99.90
7214;DHT22;3648;50.614;13.830;2023-02-28T16:06:36;3.20;99.90
7214;DHT22;3648;50.614;13.830;2023-02-28T16:09:06;3.10;99.90
7214;DHT22;3648;50.614;13.830;2023-02-28T16:11:38;3.10;99.90
7214;DHT22;3648;50.614;13.830;2023-02-28T16:14:09;3.10;99.90
7214;DHT22;3648;50.614;13.830;2023-02-28T16:16:42;3.00;99.90
7214;DHT22;3648;50.614;13.830;2023-02-28T16:19:10;2.90;99.90
7214;DHT22;3648;50.614;13.830;2023-02-28T16:21:37;2.90;99.90
7214;DHT22;3648;50.614;13.830;2023-02-28T16:24:06;2.80;99.90
7214;DHT22;3648;50.614;13.830;2023-02-28T16:26:33;2.80;99.90
7214;DHT22;3648;50.614;13.830;2023-02-28T16:29:03;2.70;99.90
7214;DHT22;3648;50.614;13.830;2023-02-28T16:31:30;2.70;99.90
7214;DHT22;3648;50.614;13.830;2023-02-28T16:33:58;2.60;99.90
7214;DHT22;3648;50.614;13.830;2023-02-28T16:36:25;2.60;99.90